Time;durP1;ratioP1;P1;durP2;ratioP2;P2;SDS_P1;SDS_P2;PMS_P1;PMS_P2;Temp;Humidity;BMP_temperature;BMP_pressure;BME280_temperature;BME280_humidity;BME280_pressure;Samples;Min_cycle;Max_cycle;Signal;HPM_P1;HPM_P2
2023/07/14 00:01:20;;;;;;;8.27;5.50;;;;;;;18.47;100.00;101697.38;4922339;29;20086;-65
2023/07/14 00:03:48;;;;;;;7.90;5.60;;;;;;;18.46;100.00;101693.03;4916958;28;20074;-63
2023/07/14 00:06:15;;;;;;;11.20;5.10;;;;;;;18.48;100.00;101699.00;4910326;29;20060;-64
2023/07/14 00:08:43;;;;;;;10.15;5.88;;;;;;;18.47;100.00;101696.56;4923875;29;20059;-63
2023/07/14 00:11:13;;;;;;;6.93;5.00;;;;;;;18.49;100.00;101698.00;4917514;29;20549;-63
2023/07/14 00:13:40;;;;;;;10.05;5.22;;;;;;;18.47;100.00;101692.06;4925100;29;20047;-64
2023/07/14 00:16:13;;;;;;;11.13;5.72;;;;;;;18.50;100.00;101696.19;4921667;29;20058;-63
2023/07/14 00:18:39;;;;;;;8.70;6.15;;;;;;;18.49;100.00;101687.38;4925686;29;20056;-63
2023/07/14 00:21:14;;;;;;;7.50;5.32;;;;;;;18.52;100.00;101683.53;4918371;29;20086;-63
2023/07/14 00:23:41;;;;;;;8.65;6.22;;;;;;;18.54;100.00;101684.19;4924504;29;20118;-64
2023/07/14 00:26:14;;;;;;;7.15;5.35;;;;;;;18.55;100.00;101693.81;4926812;29;20075;-63
2023/07/14 00:28:42;;;;;;;12.82;5.70;;;;;;;18.55;100.00;101685.84;4914696;29;20087;-64
2023/07/14 00:31:14;;;;;;;7.90;5.13;;;;;;;18.59;100.00;101687.16;4927121;29;20142;-64
2023/07/14 00:33:43;;;;;;;9.05;5.68;;;;;;;18.60;100.00;101688.78;4909833;29;20111;-64
2023/07/14 00:36:11;;;;;;;10.77;5.55;;;;;;;18.52;100.00;101688.84;4919749;29;20055;-64
2023/07/14 00:38:38;;;;;;;;;;;;;;;18.56;100.00;101690.16;4917985;29;20071;-63
2023/07/14 00:41:10;;;;;;;7.78;5.18;;;;;;;18.54;100.00;101682.38;4917529;29;19933;-63
2023/07/14 00:43:37;;;;;;;10.23;4.90;;;;;;;18.55;100.00;101678.69;4926469;29;20460;-63
2023/07/14 00:46:04;;;;;;;7.47;4.38;;;;;;;18.57;100.00;101683.84;4919709;28;20055;-64
2023/07/14 00:48:31;;;;;;;7.05;4.80;;;;;;;18.56;100.00;101684.84;4917510;29;20058;-64
2023/07/14 00:51:12;;;;;;;8.50;5.03;;;;;;;18.56;100.00;101680.38;4906835;29;20052;-63
2023/07/14 00:53:43;;;;;;;8.90;5.20;;;;;;;18.55;100.00;101680.53;4920193;29;20061;-63
2023/07/14 00:56:09;;;;;;;7.82;4.60;;;;;;;18.51;100.00;101674.75;4911540;29;20177;-63
2023/07/14 00:58:42;;;;;;;7.95;4.38;;;;;;;18.50;100.00;101670.47;4924152;29;20052;-63
2023/07/14 01:01:11;;;;;;;7.88;4.30;;;;;;;18.51;100.00;101673.94;4914052;29;20111;-65
2023/07/14 01:03:43;;;;;;;8.82;4.35;;;;;;;18.46;100.00;101665.66;4922667;29;20048;-65
2023/07/14 01:06:17;;;;;;;9.05;4.35;;;;;;;18.44;100.00;101665.84;4927109;29;20557;-63
2023/07/14 01:08:50;;;;;;;9.43;4.10;;;;;;;18.40;100.00;101666.38;4919151;29;20138;-63
2023/07/14 01:11:19;;;;;;;7.88;4.70;;;;;;;18.31;100.00;101661.13;4926696;29;20094;-63
2023/07/14 01:13:46;;;;;;;9.85;4.82;;;;;;;18.24;100.00;101665.47;4908419;29;20057;-63
2023/07/14 01:16:15;;;;;;;8.18;4.97;;;;;;;18.16;100.00;101661.06;4923498;29;20066;-63
2023/07/14 01:18:44;;;;;;;9.90;4.65;;;;;;;18.10;100.00;101666.25;4923121;29;20104;-63
2023/07/14 01:21:11;;;;;;;7.05;4.30;;;;;;;18.04;100.00;101662.47;4929471;29;20082;-64
2023/07/14 01:23:57;;;;;;;8.27;4.68;;;;;;;17.98;100.00;101657.84;4932637;29;20086;-65
2023/07/14 01:26:51;;;;;;;8.73;4.50;;;;;;;17.94;100.00;101660.03;4923955;29;20142;-63
2023/07/14 01:29:18;;;;;;;8.07;4.85;;;;;;;17.91;100.00;101659.56;4923949;29;20590;-63
2023/07/14 01:31:47;;;;;;;10.02;4.63;;;;;;;17.92;100.00;101664.69;4919129;29;20075;-63
2023/07/14 01:34:14;;;;;;;8.23;4.50;;;;;;;17.93;100.00;101663.66;4930269;29;20048;-63
2023/07/14 01:36:43;;;;;;;8.27;4.57;;;;;;;17.95;100.00;101650.22;4923802;29;20138;-65
2023/07/14 01:39:10;;;;;;;6.38;4.50;;;;;;;17.94;100.00;101651.25;4935584;29;20142;-63
2023/07/14 01:41:37;;;;;;;8.07;4.82;;;;;;;17.89;100.00;101649.09;4920341;29;20259;-63
2023/07/14 01:44:05;;;;;;;8.77;4.53;;;;;;;17.92;100.00;101642.63;4924694;29;20108;-63
2023/07/14 01:46:32;;;;;;;7.28;4.20;;;;;;;17.93;100.00;101645.09;4929695;29;20051;-63
2023/07/14 01:48:58;;;;;;;8.38;5.03;;;;;;;17.90;100.00;101644.63;4921418;29;20056;-62
2023/07/14 01:51:30;;;;;;;10.05;4.82;;;;;;;17.90;100.00;101645.47;4929598;29;20044;-64
2023/07/14 01:54:03;;;;;;;7.43;4.30;;;;;;;17.93;100.00;101644.28;4926018;29;20427;-63
2023/07/14 01:56:32;;;;;;;7.88;4.63;;;;;;;17.90;100.00;101640.16;4926433;29;20051;-64
2023/07/14 01:59:20;;;;;;;8.40;4.22;;;;;;;17.96;100.00;101647.41;4902380;29;20062;-63
2023/07/14 02:01:50;;;;;;;9.65;5.22;;;;;;;17.93;100.00;101645.09;4916066;29;20099;-62
2023/07/14 02:04:24;;;;;;;7.47;4.53;;;;;;;17.97;100.00;101642.91;4923530;29;20059;-62
2023/07/14 02:06:52;;;;;;;6.47;4.60;;;;;;;17.97;100.00;101634.97;4925572;29;20485;-65
2023/07/14 02:09:23;;;;;;;6.10;4.25;;;;;;;17.97;100.00;101635.81;4924066;29;20127;-63
2023/07/14 02:11:57;;;;;;;7.85;4.30;;;;;;;17.93;100.00;101623.84;4913821;29;20478;-63
2023/07/14 02:14:27;;;;;;;6.53;4.25;;;;;;;17.86;100.00;101632.72;4928710;29;20127;-63
2023/07/14 02:17:03;;;;;;;5.25;4.22;;;;;;;17.81;100.00;101633.19;4915046;28;20052;-63
2023/07/14 02:19:31;;;;;;;7.68;4.50;;;;;;;17.77;100.00;101635.38;4925898;29;20051;-63
2023/07/14 02:21:58;;;;;;;7.40;4.05;;;;;;;17.73;100.00;101634.06;4924681;29;20523;-63
2023/07/14 02:24:27;;;;;;;8.20;4.50;;;;;;;17.68;100.00;101632.94;4923849;29;20090;-63
2023/07/14 02:27:03;;;;;;;6.07;4.25;;;;;;;17.65;100.00;101628.81;4916108;28;20131;-63
2023/07/14 02:29:30;;;;;;;7.00;4.55;;;;;;;17.63;100.00;101629.97;4931294;29;20048;-63
2023/07/14 02:32:12;;;;;;;8.23;5.22;;;;;;;17.63;100.00;101630.81;4930286;29;20059;-63
2023/07/14 02:34:51;;;;;;;9.25;5.47;;;;;;;17.61;100.00;101629.34;4919145;29;20047;-63
2023/07/14 02:37:42;;;;;;;11.32;5.45;;;;;;;17.61;100.00;101629.34;4928293;29;20048;-63
2023/07/14 02:40:10;;;;;;;8.07;5.80;;;;;;;17.60;100.00;101623.19;4913709;29;20532;-63
2023/07/14 02:42:39;;;;;;;10.82;6.18;;;;;;;17.56;100.00;101622.72;4929363;29;20047;-62
2023/07/14 02:45:07;;;;;;;13.85;6.20;;;;;;;17.58;100.00;101627.84;4919598;29;20457;-63
2023/07/14 02:47:39;;;;;;;10.23;5.63;;;;;;;17.56;100.00;101629.84;4930189;29;20054;-62
2023/07/14 02:50:06;;;;;;;7.40;5.22;;;;;;;17.55;100.00;101629.00;4920544;29;20051;-67
2023/07/14 02:52:33;;;;;;;7.68;6.03;;;;;;;17.49;100.00;101628.88;4924852;29;20051;-66
2023/07/14 02:55:00;;;;;;;9.73;6.03;;;;;;;17.47;100.00;101625.59;4927264;29;20463;-67
2023/07/14 02:57:26;;;;;;;8.50;6.18;;;;;;;17.46;100.00;101624.72;4922480;29;20151;-66
2023/07/14 02:59:52;;;;;;;8.23;6.53;;;;;;;17.52;100.00;101626.72;4932598;29;20073;-66
2023/07/14 03:02:19;;;;;;;12.80;7.28;;;;;;;17.41;100.00;101615.66;4923454;29;20067;-66
2023/07/14 03:04:45;;;;;;;11.85;6.43;;;;;;;17.41;100.00;101615.66;4930084;29;20115;-66
2023/07/14 03:07:12;;;;;;;9.80;6.63;;;;;;;17.43;100.00;101613.66;4916300;29;20633;-67
2023/07/14 03:09:38;;;;;;;9.63;6.45;;;;;;;17.47;100.00;101621.09;4927090;29;20500;-67
2023/07/14 03:12:05;;;;;;;9.57;6.28;;;;;;;17.46;100.00;101618.59;4928158;29;20500;-66
2023/07/14 03:14:31;;;;;;;9.02;6.07;;;;;;;17.47;100.00;101618.44;4922048;29;20706;-66
2023/07/14 03:16:58;;;;;;;9.20;6.50;;;;;;;17.45;100.00;101614.31;4928370;29;20044;-67
2023/07/14 03:19:25;;;;;;;11.85;6.35;;;;;;;17.39;100.00;101613.19;4922735;28;20052;-66
2023/07/14 03:21:51;;;;;;;9.57;6.38;;;;;;;17.37;100.00;101616.00;4924439;29;20150;-67
2023/07/14 03:24:17;;;;;;;9.95;6.30;;;;;;;17.37;100.00;101613.34;4923627;28;20134;-67
2023/07/14 03:26:44;;;;;;;9.32;6.28;;;;;;;17.38;100.00;101609.69;4924199;29;20493;-66
2023/07/14 03:29:10;;;;;;;11.02;6.10;;;;;;;17.40;100.00;101612.16;4930282;29;20154;-67
2023/07/14 03:31:37;;;;;;;8.43;6.00;;;;;;;17.36;100.00;101609.03;4917690;29;20467;-66
2023/07/14 03:34:04;;;;;;;9.45;6.05;;;;;;;17.34;100.00;101612.84;4921503;29;20587;-67
2023/07/14 03:36:30;;;;;;;9.55;6.20;;;;;;;17.25;100.00;101605.91;4922544;29;20051;-68
2023/07/14 03:39:27;;;;;;;7.55;5.38;;;;;;;17.27;100.00;101623.34;4927410;29;20106;-65
2023/07/14 03:41:56;;;;;;;9.45;5.72;;;;;;;17.29;100.00;101612.53;4920494;29;20080;-65
2023/07/14 03:44:23;;;;;;;8.32;5.97;;;;;;;17.28;100.00;101617.00;4921943;29;20458;-65
2023/07/14 03:46:50;;;;;;;7.53;5.68;;;;;;;17.27;100.00;101610.06;4923349;29;20402;-66
2023/07/14 03:49:17;;;;;;;12.10;6.07;;;;;;;17.27;100.00;101607.44;4919207;29;20078;-66
2023/07/14 03:51:44;;;;;;;8.13;5.82;;;;;;;17.29;100.00;101612.53;4926509;29;20055;-66
2023/07/14 03:54:11;;;;;;;8.55;5.80;;;;;;;17.30;100.00;101606.25;4919501;28;20091;-66
2023/07/14 03:56:38;;;;;;;9.15;6.30;;;;;;;17.28;100.00;101602.94;4912416;29;20051;-66
2023/07/14 03:59:04;;;;;;;8.75;5.90;;;;;;;17.27;100.00;101611.88;4913097;29;20409;-65
2023/07/14 04:01:31;;;;;;;8.10;5.97;;;;;;;17.26;100.00;101602.28;4923646;29;20051;-66
2023/07/14 04:03:57;;;;;;;10.30;5.88;;;;;;;17.22;100.00;101601.78;4923142;29;20067;-65
2023/07/14 04:06:28;;;;;;;7.63;5.30;;;;;;;17.22;100.00;101593.84;4912651;29;20044;-66
2023/07/14 04:08:58;;;;;;;9.03;6.00;;;;;;;17.26;100.00;101589.03;4929633;29;20047;-66
2023/07/14 04:11:25;;;;;;;8.77;6.07;;;;;;;17.19;100.00;101600.31;4920820;29;20078;-65
2023/07/14 04:13:52;;;;;;;8.90;6.03;;;;;;;17.17;100.00;101599.66;4925901;29;20055;-65
2023/07/14 04:16:19;;;;;;;10.38;6.10;;;;;;;17.19;100.00;101600.31;4914408;29;20640;-65
2023/07/14 04:18:45;;;;;;;10.40;6.15;;;;;;;17.14;100.00;101596.53;4927465;29;20856;-65
2023/07/14 04:21:13;;;;;;;11.85;6.82;;;;;;;17.14;100.00;101597.34;4921900;29;20056;-66
2023/07/14 04:23:40;;;;;;;10.90;5.53;;;;;;;17.13;100.00;101600.16;4925049;29;20518;-65
2023/07/14 04:26:08;;;;;;;9.95;6.40;;;;;;;17.12;100.00;101596.69;4928025;29;20056;-66
2023/07/14 04:28:36;;;;;;;9.93;6.18;;;;;;;17.11;100.00;101602.16;4916097;29;20141;-65
2023/07/14 04:31:03;;;;;;;8.80;6.15;;;;;;;17.08;100.00;101598.03;4923825;29;20482;-66
2023/07/14 04:33:30;;;;;;;9.18;5.80;;;;;;;17.11;100.00;101596.84;4922074;29;20047;-66
2023/07/14 04:35:57;;;;;;;8.38;6.57;;;;;;;17.11;100.00;101596.84;4910257;29;20551;-66
2023/07/14 04:38:24;;;;;;;9.40;6.53;;;;;;;17.12;100.00;101599.34;4921110;29;20217;-66
2023/07/14 04:40:51;;;;;;;9.75;6.22;;;;;;;17.14;100.00;101599.19;4923766;29;20079;-65
2023/07/14 04:43:18;;;;;;;8.35;6.10;;;;;;;17.17;100.00;101598.81;4921621;29;20061;-65
2023/07/14 04:45:46;;;;;;;9.35;6.15;;;;;;;17.21;100.00;101584.25;4921164;29;20509;-65
2023/07/14 04:48:18;;;;;;;11.25;6.47;;;;;;;17.27;100.00;101594.16;4924804;29;20090;-65
2023/07/14 04:50:46;;;;;;;10.43;6.70;;;;;;;17.31;100.00;101595.47;4925297;29;20110;-66
2023/07/14 04:53:15;;;;;;;12.18;7.75;;;;;;;17.29;100.00;101586.88;4928071;29;20059;-65
2023/07/14 04:55:44;;;;;;;12.65;7.35;;;;;;;17.29;100.00;101586.03;4915628;29;20111;-65
2023/07/14 04:58:12;;;;;;;14.35;7.57;;;;;;;17.32;100.00;101583.84;4921998;29;20051;-65
2023/07/14 05:00:41;;;;;;;10.68;7.38;;;;;;;17.41;100.00;101589.16;4924227;29;20067;-66
2023/07/14 05:03:07;;;;;;;;;;;;;;;17.44;100.00;101584.28;4923168;29;20577;-66
2023/07/14 05:05:35;;;;;;;13.75;8.13;;;;;;;17.47;100.00;101588.44;4924976;29;20526;-65
2023/07/14 05:08:01;;;;;;;10.55;7.55;;;;;;;17.52;100.00;101594.03;4920540;29;20083;-65
2023/07/14 05:10:31;;;;;;;12.85;7.97;;;;;;;17.50;100.00;101588.09;4922043;29;20092;-65
2023/07/14 05:12:58;;;;;;;12.48;7.70;;;;;;;17.46;100.00;101581.47;4917184;29;20043;-66
2023/07/14 05:15:25;;;;;;;11.38;6.43;;;;;;;17.52;100.00;101583.44;4927901;29;20495;-66
2023/07/14 05:17:52;;;;;;;12.35;7.13;;;;;;;17.47;100.00;101581.31;4923742;29;20047;-65
2023/07/14 05:20:19;;;;;;;12.68;6.82;;;;;;;17.47;100.00;101583.97;4922311;28;20458;-65
2023/07/14 05:22:49;;;;;;;9.05;6.45;;;;;;;17.56;100.00;101588.25;4924100;29;20075;-65
2023/07/14 05:25:16;;;;;;;11.02;7.57;;;;;;;17.62;100.00;101586.72;4913246;29;20138;-66
2023/07/14 05:27:43;;;;;;;11.77;7.65;;;;;;;17.53;100.00;101588.56;4923685;29;20051;-66
2023/07/14 05:30:14;;;;;;;12.52;7.35;;;;;;;17.57;100.00;101589.06;4920748;29;20055;-65
2023/07/14 05:32:45;;;;;;;11.88;8.02;;;;;;;17.56;100.00;101582.94;4925505;29;20048;-65
2023/07/14 05:35:13;;;;;;;11.43;7.50;;;;;;;17.57;100.00;101586.41;4923941;29;20056;-65
2023/07/14 05:37:40;;;;;;;12.43;7.82;;;;;;;17.54;100.00;101584.94;4916670;29;20051;-65
2023/07/14 05:40:10;;;;;;;14.93;8.32;;;;;;;17.52;100.00;101580.78;4920497;29;20107;-66
2023/07/14 05:42:38;;;;;;;13.50;8.63;;;;;;;17.46;100.00;101584.94;4920885;29;20065;-65
2023/07/14 05:45:05;;;;;;;12.13;8.40;;;;;;;17.46;100.00;101578.81;4927335;29;20059;-66
2023/07/14 05:47:35;;;;;;;12.40;8.80;;;;;;;17.49;100.00;101584.63;4919884;29;20058;-66
2023/07/14 05:50:03;;;;;;;11.73;7.93;;;;;;;17.56;100.00;101582.09;4927189;29;20282;-66
2023/07/14 05:52:29;;;;;;;13.68;8.55;;;;;;;17.67;100.00;101572.94;4921410;29;20567;-65
2023/07/14 05:54:56;;;;;;;11.32;7.85;;;;;;;17.73;100.00;101573.03;4919672;29;20513;-66
2023/07/14 05:57:22;;;;;;;12.35;8.70;;;;;;;17.69;100.00;101570.91;4926971;29;20186;-66
2023/07/14 05:59:49;;;;;;;13.40;9.18;;;;;;;17.79;100.00;101568.84;4925972;29;20602;-65
2023/07/14 06:02:15;;;;;;;11.65;8.82;;;;;;;17.82;100.00;101573.81;4930136;29;20052;-66
2023/07/14 06:04:42;;;;;;;14.65;8.57;;;;;;;17.81;100.00;101577.47;4923129;29;20086;-65
2023/07/14 06:07:09;;;;;;;12.98;8.23;;;;;;;17.80;100.00;101567.88;4921318;29;20511;-65
2023/07/14 06:09:37;;;;;;;14.52;8.07;;;;;;;17.78;100.00;101573.34;4930894;29;20056;-66
2023/07/14 06:12:06;;;;;;;13.57;7.45;;;;;;;17.75;100.00;101572.88;4922293;29;20075;-66
2023/07/14 06:14:34;;;;;;;11.68;7.68;;;;;;;17.91;100.00;101569.31;4930634;29;20433;-66
2023/07/14 06:17:02;;;;;;;12.90;7.35;;;;;;;17.89;100.00;101571.31;4922158;29;20055;-65
2023/07/14 06:19:30;;;;;;;9.82;6.47;;;;;;;17.89;100.00;101569.47;4924063;29;20055;-66
2023/07/14 06:21:57;;;;;;;13.68;6.45;;;;;;;17.87;100.00;101570.66;4921060;29;20302;-66
2023/07/14 06:24:24;;;;;;;11.10;6.15;;;;;;;17.91;100.00;101561.34;4928833;29;20062;-66
2023/07/14 06:26:51;;;;;;;10.57;6.07;;;;;;;17.91;100.00;101562.16;4929339;29;20118;-65
2023/07/14 06:29:18;;;;;;;7.93;5.72;;;;;;;17.94;100.00;101561.00;4923609;29;20136;-65
2023/07/14 06:31:44;;;;;;;9.65;4.70;;;;;;;17.90;100.00;101562.38;4926613;29;20135;-65
2023/07/14 06:34:13;;;;;;;11.80;5.57;;;;;;;17.93;100.00;101562.81;4919823;28;20712;-66
2023/07/14 06:36:40;;;;;;;10.23;5.47;;;;;;;18.00;100.00;101556.81;4928972;29;20059;-66
2023/07/14 06:39:07;;;;;;;11.73;5.35;;;;;;;18.00;100.00;101556.81;4921049;29;20048;-66
2023/07/14 06:41:33;;;;;;;12.15;5.20;;;;;;;18.01;100.00;101559.28;4911673;29;20060;-66
2023/07/14 06:44:01;;;;;;;8.70;4.57;;;;;;;17.98;100.00;101568.44;4927680;29;20218;-65
2023/07/14 06:46:45;;;;;;;7.95;4.55;;;;;;;18.05;100.00;101557.09;4921568;28;20048;-65
2023/07/14 06:49:12;;;;;;;6.90;3.92;;;;;;;18.11;100.00;101553.72;4924844;29;20051;-66
2023/07/14 06:51:48;;;;;;;8.68;4.38;;;;;;;18.22;100.00;101555.97;4922907;29;20055;-67
2023/07/14 06:54:16;;;;;;;8.15;4.68;;;;;;;18.20;100.00;101551.84;4926911;29;20052;-66
2023/07/14 06:56:42;;;;;;;8.60;5.22;;;;;;;18.27;100.00;101552.75;4923751;29;20075;-66
2023/07/14 06:59:08;;;;;;;10.13;5.45;;;;;;;18.24;100.00;101558.44;4925404;29;20074;-66
2023/07/14 07:01:35;;;;;;;10.73;5.82;;;;;;;18.22;100.00;101555.97;4921794;29;20083;-67
2023/07/14 07:04:01;;;;;;;8.73;5.25;;;;;;;18.21;100.00;101550.81;4918912;29;20059;-66
2023/07/14 07:06:28;;;;;;;11.18;6.68;;;;;;;18.08;100.00;101552.25;4930313;29;20453;-66
2023/07/14 07:08:56;;;;;;;10.60;6.63;;;;;;;18.17;100.00;101545.88;4920910;29;20051;-67
2023/07/14 07:11:23;;;;;;;8.85;5.70;;;;;;;18.32;100.00;101553.06;4928740;29;20048;-67
2023/07/14 07:13:49;;;;;;;10.70;6.10;;;;;;;18.34;100.00;101553.72;4914727;29;20079;-67
2023/07/14 07:16:16;;;;;;;9.70;5.65;;;;;;;18.35;100.00;101556.19;4923704;29;20047;-65
2023/07/14 07:18:43;;;;;;;11.18;6.00;;;;;;;18.35;100.00;101552.72;4920953;29;20047;-66
2023/07/14 07:21:12;;;;;;;10.82;5.80;;;;;;;18.39;100.00;101551.34;4920094;29;20055;-66
2023/07/14 07:23:39;;;;;;;9.55;5.85;;;;;;;18.51;100.00;101549.06;4912911;29;20048;-67
2023/07/14 07:26:06;;;;;;;12.02;5.55;;;;;;;18.54;100.00;101551.34;4921168;29;20052;-67
2023/07/14 07:28:33;;;;;;;9.00;5.50;;;;;;;18.57;100.00;101546.50;4922544;29;20098;-66
2023/07/14 07:31:08;;;;;;;10.35;6.25;;;;;;;18.61;100.00;101544.31;4918189;29;20060;-67
2023/07/14 07:33:40;;;;;;;10.68;6.20;;;;;;;18.67;100.00;101534.78;4925768;29;21701;-67
2023/07/14 07:36:16;;;;;;;11.88;6.00;;;;;;;18.67;99.80;101535.63;4919774;29;20055;-66
2023/07/14 07:38:45;;;;;;;9.07;5.65;;;;;;;18.58;99.50;101545.50;4928156;29;20477;-66
2023/07/14 07:41:14;;;;;;;9.45;6.20;;;;;;;18.49;100.00;101540.47;4923124;29;20047;-67
2023/07/14 07:43:40;;;;;;;;;;;;;;;18.62;100.00;101523.88;4918066;29;20044;-66
2023/07/14 07:46:07;;;;;;;8.27;5.57;;;;;;;18.70;100.00;101526.44;4926189;29;19961;-67
2023/07/14 07:48:35;;;;;;;9.23;5.50;;;;;;;18.71;99.48;101528.09;4917157;29;20099;-67
2023/07/14 07:51:05;;;;;;;11.07;4.95;;;;;;;18.75;99.33;101516.09;4931774;29;20446;-67
2023/07/14 07:53:33;;;;;;;8.60;4.70;;;;;;;18.88;98.33;101520.81;4921063;29;20155;-67
2023/07/14 07:56:01;;;;;;;6.55;3.80;;;;;;;19.04;98.93;101514.47;4912600;29;20051;-65
2023/07/14 07:58:28;;;;;;;7.68;3.88;;;;;;;19.21;97.26;101512.41;4909723;29;20078;-65
2023/07/14 08:00:58;;;;;;;5.65;3.13;;;;;;;19.36;94.40;101505.22;4921120;29;20107;-66
2023/07/14 08:03:24;;;;;;;6.97;3.65;;;;;;;19.42;88.48;101516.94;4925409;29;20052;-66
2023/07/14 08:05:52;;;;;;;7.45;3.55;;;;;;;19.43;85.88;101511.44;4919482;29;20481;-66
2023/07/14 08:08:18;;;;;;;10.20;4.03;;;;;;;19.38;84.80;101505.03;4924555;29;20048;-66
2023/07/14 08:10:45;;;;;;;7.05;3.28;;;;;;;19.61;88.07;101505.69;4919971;28;20051;-66
2023/07/14 08:13:14;;;;;;;5.67;3.30;;;;;;;19.75;84.60;101506.69;4926075;29;20056;-66
2023/07/14 08:15:41;;;;;;;11.70;3.78;;;;;;;19.78;81.81;101506.31;4929876;29;20695;-66
2023/07/14 08:18:08;;;;;;;5.93;3.13;;;;;;;19.67;80.25;101512.09;4920450;28;20083;-66
2023/07/14 08:20:37;;;;;;;7.38;3.25;;;;;;;19.64;78.82;101504.47;4931168;29;20075;-65
2023/07/14 08:23:13;;;;;;;6.43;3.13;;;;;;;19.53;79.32;101511.16;4919850;29;20055;-65
2023/07/14 08:25:40;;;;;;;6.35;2.88;;;;;;;19.50;79.18;101500.88;4929919;29;20133;-66
2023/07/14 08:28:08;;;;;;;7.95;3.45;;;;;;;19.58;79.78;101497.25;4924860;29;20063;-65
2023/07/14 08:30:34;;;;;;;8.83;3.27;;;;;;;19.62;78.64;101506.50;4950013;29;20036;-65
2023/07/14 08:33:01;;;;;;;5.78;2.90;;;;;;;19.63;80.25;101501.00;4939034;29;20139;-66
2023/07/14 08:35:27;;;;;;;6.47;3.10;;;;;;;19.69;80.89;101500.25;4923922;29;20110;-67
2023/07/14 08:37:54;;;;;;;6.38;3.05;;;;;;;19.82;81.79;101514.75;4924501;29;20052;-66
2023/07/14 08:40:33;;;;;;;6.63;3.22;;;;;;;19.86;80.14;101510.69;4919255;29;20063;-66
2023/07/14 08:43:28;;;;;;;6.25;3.03;;;;;;;19.97;77.85;101517.31;4928827;29;20101;-68
2023/07/14 08:46:00;;;;;;;7.13;2.67;;;;;;;19.87;76.08;101504.31;4919973;29;20521;-65
2023/07/14 08:48:37;;;;;;;4.20;2.03;;;;;;;19.87;72.71;101510.47;4914160;29;20047;-67
2023/07/14 08:51:15;;;;;;;5.97;2.67;;;;;;;20.24;71.92;101497.88;4917055;29;20102;-66
2023/07/14 08:53:49;;;;;;;5.43;2.40;;;;;;;20.03;69.44;101514.72;4927069;29;20055;-66
2023/07/14 08:56:18;;;;;;;5.70;2.60;;;;;;;20.01;71.46;101502.59;4919518;29;20134;-66
2023/07/14 08:58:46;;;;;;;10.48;2.70;;;;;;;20.01;72.49;101507.94;4927157;29;20083;-65
2023/07/14 09:01:34;;;;;;;;;;;;;;;20.19;73.40;101496.78;4930957;29;20245;-66
2023/07/14 09:04:09;;;;;;;3.65;2.20;;;;;;;20.61;70.19;101503.06;4916594;29;19932;-67
2023/07/14 09:06:36;;;;;;;5.78;2.75;;;;;;;20.56;70.89;101500.94;4927471;29;20065;-66
2023/07/14 09:09:13;;;;;;;6.18;2.45;;;;;;;20.61;70.71;101508.41;4916065;29;20082;-66
2023/07/14 09:12:02;;;;;;;5.80;2.50;;;;;;;20.78;72.01;101506.22;4923108;29;20110;-67
2023/07/14 09:14:34;;;;;;;4.97;2.55;;;;;;;20.93;72.43;101498.91;4919526;29;20053;-66
2023/07/14 09:17:12;;;;;;;5.82;2.83;;;;;;;20.99;71.58;101492.78;4920659;29;20509;-66
2023/07/14 09:19:54;;;;;;;;;;;;;;;20.92;70.95;101495.44;4918982;29;20489;-66
2023/07/14 09:22:48;;;;;;;5.63;2.40;;;;;;;21.07;74.42;101489.97;4928897;29;20020;-66
2023/07/14 09:25:30;;;;;;;5.05;2.58;;;;;;;21.23;75.11;101490.59;4918931;29;20059;-67
2023/07/14 09:27:57;;;;;;;6.85;2.60;;;;;;;21.16;71.44;101495.94;4925257;29;20059;-67
2023/07/14 09:30:27;;;;;;;6.13;2.55;;;;;;;21.26;69.94;101493.69;4916071;29;20406;-66
2023/07/14 09:33:00;;;;;;;5.25;2.50;;;;;;;21.35;69.64;101482.84;4918887;29;20048;-66
2023/07/14 09:35:28;;;;;;;6.65;2.40;;;;;;;21.29;71.42;101479.97;4927100;29;20610;-66
2023/07/14 09:37:58;;;;;;;;;;;;;;;21.56;73.33;101474.72;4923857;28;21367;-66
2023/07/14 09:40:30;;;;;;;5.68;2.45;;;;;;;21.59;68.23;101476.97;4931213;29;19992;-66
2023/07/14 09:42:58;;;;;;;4.63;2.33;;;;;;;21.68;67.26;101477.59;4924230;29;20767;-67
2023/07/14 09:45:36;;;;;;;6.97;2.28;;;;;;;21.47;65.49;101483.94;4924674;29;20051;-66
2023/07/14 09:48:10;;;;;;;6.88;2.63;;;;;;;21.47;66.33;101466.06;4917606;29;20445;-66
2023/07/14 09:51:01;;;;;;;4.80;2.60;;;;;;;21.62;66.00;101475.72;4929683;29;20050;-66
2023/07/14 09:53:31;;;;;;;5.50;2.40;;;;;;;21.95;65.51;101475.75;4923457;29;20875;-66
2023/07/14 09:56:03;;;;;;;4.90;2.40;;;;;;;22.02;64.15;101476.56;4930104;29;20062;-66
2023/07/14 09:58:31;;;;;;;4.60;2.40;;;;;;;21.99;64.25;101468.13;4927173;29;20126;-67
2023/07/14 10:01:03;;;;;;;6.00;2.45;;;;;;;21.83;63.31;101456.84;4919395;29;20419;-66
2023/07/14 10:03:39;;;;;;;5.90;2.40;;;;;;;21.70;63.92;101462.22;4929778;29;20496;-66
2023/07/14 10:06:13;;;;;;;4.28;2.33;;;;;;;21.84;63.45;101445.16;4918942;29;20056;-66
2023/07/14 10:08:50;;;;;;;6.25;2.25;;;;;;;21.99;64.05;101442.25;4930213;29;20527;-66
2023/07/14 10:11:30;;;;;;;5.38;2.40;;;;;;;21.97;63.41;101455.00;4914396;29;20055;-67
2023/07/14 10:14:06;;;;;;;6.68;2.33;;;;;;;22.55;63.48;101442.78;4917975;29;20048;-67
2023/07/14 10:16:40;;;;;;;4.20;2.05;;;;;;;22.57;60.16;101440.72;4919374;29;20051;-67
2023/07/14 10:19:16;;;;;;;6.25;2.40;;;;;;;22.25;60.07;101438.75;4927800;29;20051;-68
2023/07/14 10:21:54;;;;;;;5.15;2.28;;;;;;;22.27;59.07;101446.56;4931017;29;20056;-67
2023/07/14 10:24:22;;;;;;;6.22;2.40;;;;;;;22.65;60.82;101438.63;4926097;29;20057;-68
2023/07/14 10:27:01;;;;;;;7.20;2.40;;;;;;;22.76;60.14;101447.84;4925541;29;20066;-67
2023/07/14 10:29:48;;;;;;;5.07;2.53;;;;;;;22.58;59.82;101420.97;4915345;29;20053;-67
2023/07/14 10:32:39;;;;;;;4.85;2.08;;;;;;;22.97;62.11;101424.50;4929406;29;20454;-66
2023/07/14 10:35:15;;;;;;;4.72;1.95;;;;;;;22.99;60.49;101415.25;4916863;29;20055;-67
2023/07/14 10:37:51;;;;;;;8.27;2.55;;;;;;;22.98;58.18;101412.78;4924406;29;20126;-67
2023/07/14 10:40:22;;;;;;;8.60;2.63;;;;;;;22.87;58.32;101416.94;4918042;29;20481;-66
2023/07/14 10:43:24;;;;;;;6.28;2.90;;;;;;;22.81;58.13;101397.22;4923819;29;20051;-66
2023/07/14 10:45:56;;;;;;;6.03;2.53;;;;;;;23.12;58.42;101400.97;4918031;29;20051;-68
2023/07/14 10:48:34;;;;;;;7.00;2.75;;;;;;;23.08;57.94;101392.56;4927513;29;20139;-67
2023/07/14 10:51:08;;;;;;;6.25;2.38;;;;;;;23.27;58.21;101396.16;4921395;29;20048;-66
2023/07/14 10:53:41;;;;;;;7.18;2.50;;;;;;;23.21;57.66;101394.34;4927611;29;20071;-67
2023/07/14 10:56:23;;;;;;;4.35;2.25;;;;;;;23.21;58.06;101397.03;4924641;29;20481;-67
2023/07/14 10:58:58;;;;;;;6.43;2.65;;;;;;;23.33;58.25;101390.97;4925099;29;20146;-66
2023/07/14 11:01:40;;;;;;;7.63;2.63;;;;;;;23.47;58.42;101395.19;4929739;29;20063;-66
2023/07/14 11:04:29;;;;;;;4.70;2.70;;;;;;;23.37;57.29;101394.84;4913845;29;20054;-67
2023/07/14 11:06:57;;;;;;;5.45;2.33;;;;;;;23.41;57.65;101396.06;4921225;29;20110;-67
2023/07/14 11:09:24;;;;;;;7.97;2.80;;;;;;;23.06;57.85;101388.47;4916761;29;20050;-67
2023/07/14 11:12:22;;;;;;;6.53;2.50;;;;;;;23.10;57.15;101395.84;4928270;29;20130;-67
2023/07/14 11:15:04;;;;;;;6.60;2.78;;;;;;;22.87;57.21;101384.84;4920863;29;20118;-67
2023/07/14 11:18:07;;;;;;;5.75;2.30;;;;;;;22.96;57.51;101383.56;4928023;29;20051;-68
2023/07/14 11:20:41;;;;;;;6.32;2.47;;;;;;;22.99;57.32;101387.66;4920579;29;20043;-67
2023/07/14 11:23:23;;;;;;;3.88;2.38;;;;;;;22.82;59.13;101384.69;4912605;29;20118;-68
2023/07/14 11:26:05;;;;;;;6.65;2.67;;;;;;;22.89;59.22;101378.25;4921928;28;20106;-67
2023/07/14 11:28:43;;;;;;;6.70;2.00;;;;;;;23.10;60.28;101379.78;4927414;29;20051;-67
2023/07/14 11:31:26;;;;;;;3.60;2.10;;;;;;;23.22;58.87;101381.78;4920117;29;20047;-67
2023/07/14 11:34:13;;;;;;;9.10;2.50;;;;;;;23.28;59.16;101375.56;4921213;29;20056;-67
2023/07/14 11:36:47;;;;;;;5.78;2.35;;;;;;;23.30;59.11;101366.25;4921480;29;20098;-67